sensor_id;sensor_type;location;lat;lon;timestamp;P1;durP1;ratioP1;P2;durP2;ratioP2
42590;SDS011;28218;53.342;-6.216;2024-01-30T00:01:46;15.68;;;3.42;;
42590;SDS011;28218;53.342;-6.216;2024-01-30T00:04:14;14.18;;;3.80;;
42590;SDS011;28218;53.342;-6.216;2024-01-30T00:06:43;16.20;;;4.32;;
42590;SDS011;28218;53.342;-6.216;2024-01-30T00:09:13;13.98;;;3.22;;
42590;SDS011;28218;53.342;-6.216;2024-01-30T00:11:41;19.23;;;3.88;;
42590;SDS011;28218;53.342;-6.216;2024-01-30T00:14:10;24.55;;;4.05;;
42590;SDS011;28218;53.342;-6.216;2024-01-30T00:16:38;12.55;;;3.25;;
42590;SDS011;28218;53.342;-6.216;2024-01-30T00:19:06;17.23;;;3.40;;
42590;SDS011;28218;53.342;-6.216;2024-01-30T00:21:35;14.05;;;3.10;;
42590;SDS011;28218;53.342;-6.216;2024-01-30T00:24:03;8.13;;;2.80;;
42590;SDS011;28218;53.342;-6.216;2024-01-30T00:26:33;26.65;;;3.78;;
42590;SDS011;28218;53.342;-6.216;2024-01-30T00:29:01;18.50;;;3.92;;
42590;SDS011;28218;53.342;-6.216;2024-01-30T00:31:30;14.75;;;3.03;;
42590;SDS011;28218;53.342;-6.216;2024-01-30T00:33:58;13.50;;;3.15;;
42590;SDS011;28218;53.342;-6.216;2024-01-30T00:36:26;15.90;;;3.17;;
42590;SDS011;28218;53.342;-6.216;2024-01-30T00:38:56;19.30;;;3.90;;
42590;SDS011;28218;53.342;-6.216;2024-01-30T00:41:24;10.02;;;2.83;;
42590;SDS011;28218;53.342;-6.216;2024-01-30T00:43:54;12.32;;;2.80;;
42590;SDS011;28218;53.342;-6.216;2024-01-30T00:46:23;12.90;;;3.00;;
42590;SDS011;28218;53.342;-6.216;2024-01-30T00:48:51;14.57;;;3.30;;
42590;SDS011;28218;53.342;-6.216;2024-01-30T00:51:19;16.60;;;3.17;;
42590;SDS011;28218;53.342;-6.216;2024-01-30T00:53:48;10.50;;;2.67;;
42590;SDS011;28218;53.342;-6.216;2024-01-30T00:56:16;19.50;;;4.63;;
42590;SDS011;28218;53.342;-6.216;2024-01-30T00:58:45;18.30;;;4.15;;
42590;SDS011;28218;53.342;-6.216;2024-01-30T01:01:14;14.38;;;3.05;;
42590;SDS011;28218;53.342;-6.216;2024-01-30T01:03:43;16.88;;;3.03;;
42590;SDS011;28218;53.342;-6.216;2024-01-30T01:06:11;13.48;;;2.55;;
42590;SDS011;28218;53.342;-6.216;2024-01-30T01:08:40;19.52;;;3.53;;
42590;SDS011;28218;53.342;-6.216;2024-01-30T01:11:08;12.07;;;2.80;;
42590;SDS011;28218;53.342;-6.216;2024-01-30T01:13:36;10.27;;;3.05;;
42590;SDS011;28218;53.342;-6.216;2024-01-30T01:16:04;12.27;;;2.53;;
42590;SDS011;28218;53.342;-6.216;2024-01-30T01:18:34;14.32;;;3.47;;
42590;SDS011;28218;53.342;-6.216;2024-01-30T01:21:03;13.80;;;3.05;;
42590;SDS011;28218;53.342;-6.216;2024-01-30T01:23:31;12.98;;;2.72;;
42590;SDS011;28218;53.342;-6.216;2024-01-30T01:25:59;18.40;;;3.40;;
42590;SDS011;28218;53.342;-6.216;2024-01-30T01:28:28;14.32;;;3.60;;
42590;SDS011;28218;53.342;-6.216;2024-01-30T01:30:56;12.82;;;3.15;;
42590;SDS011;28218;53.342;-6.216;2024-01-30T01:33:32;11.63;;;3.35;;
42590;SDS011;28218;53.342;-6.216;2024-01-30T01:36:02;14.05;;;3.60;;
42590;SDS011;28218;53.342;-6.216;2024-01-30T01:38:30;17.63;;;3.17;;
42590;SDS011;28218;53.342;-6.216;2024-01-30T01:40:59;11.93;;;3.08;;
42590;SDS011;28218;53.342;-6.216;2024-01-30T01:43:27;12.85;;;2.72;;
42590;SDS011;28218;53.342;-6.216;2024-01-30T01:45:56;15.13;;;3.63;;
42590;SDS011;28218;53.342;-6.216;2024-01-30T01:48:25;12.02;;;3.63;;
42590;SDS011;28218;53.342;-6.216;2024-01-30T01:50:54;13.13;;;3.28;;
42590;SDS011;28218;53.342;-6.216;2024-01-30T01:53:24;15.07;;;3.03;;
42590;SDS011;28218;53.342;-6.216;2024-01-30T01:55:53;11.50;;;2.78;;
42590;SDS011;28218;53.342;-6.216;2024-01-30T01:58:22;12.77;;;2.72;;
42590;SDS011;28218;53.342;-6.216;2024-01-30T02:00:56;15.02;;;2.90;;
42590;SDS011;28218;53.342;-6.216;2024-01-30T02:03:24;11.43;;;2.92;;
42590;SDS011;28218;53.342;-6.216;2024-01-30T02:05:53;10.70;;;2.88;;
42590;SDS011;28218;53.342;-6.216;2024-01-30T02:08:24;23.50;;;3.63;;
42590;SDS011;28218;53.342;-6.216;2024-01-30T02:10:52;18.17;;;2.85;;
42590;SDS011;28218;53.342;-6.216;2024-01-30T02:13:21;13.10;;;3.55;;
42590;SDS011;28218;53.342;-6.216;2024-01-30T02:15:49;28.88;;;4.40;;
42590;SDS011;28218;53.342;-6.216;2024-01-30T02:18:19;12.68;;;2.88;;
42590;SDS011;28218;53.342;-6.216;2024-01-30T02:20:48;12.27;;;3.33;;
42590;SDS011;28218;53.342;-6.216;2024-01-30T02:23:18;10.77;;;2.22;;
42590;SDS011;28218;53.342;-6.216;2024-01-30T02:25:47;14.87;;;3.00;;
42590;SDS011;28218;53.342;-6.216;2024-01-30T02:28:16;8.65;;;2.65;;
42590;SDS011;28218;53.342;-6.216;2024-01-30T02:30:44;14.07;;;3.00;;
42590;SDS011;28218;53.342;-6.216;2024-01-30T02:33:13;6.20;;;2.05;;
42590;SDS011;28218;53.342;-6.216;2024-01-30T02:35:41;11.32;;;2.80;;
42590;SDS011;28218;53.342;-6.216;2024-01-30T02:38:10;8.57;;;2.72;;
42590;SDS011;28218;53.342;-6.216;2024-01-30T02:40:39;19.17;;;3.80;;
42590;SDS011;28218;53.342;-6.216;2024-01-30T02:43:08;11.52;;;3.08;;
42590;SDS011;28218;53.342;-6.216;2024-01-30T02:45:36;8.95;;;3.03;;
42590;SDS011;28218;53.342;-6.216;2024-01-30T02:48:05;17.42;;;2.70;;
42590;SDS011;28218;53.342;-6.216;2024-01-30T02:50:34;7.30;;;3.10;;
42590;SDS011;28218;53.342;-6.216;2024-01-30T02:53:02;12.52;;;2.45;;
42590;SDS011;28218;53.342;-6.216;2024-01-30T02:55:31;9.32;;;2.92;;
42590;SDS011;28218;53.342;-6.216;2024-01-30T02:58:00;10.35;;;2.80;;
42590;SDS011;28218;53.342;-6.216;2024-01-30T03:00:28;9.13;;;2.75;;
42590;SDS011;28218;53.342;-6.216;2024-01-30T03:02:57;13.05;;;3.10;;
42590;SDS011;28218;53.342;-6.216;2024-01-30T03:05:26;12.63;;;2.45;;
42590;SDS011;28218;53.342;-6.216;2024-01-30T03:07:54;17.10;;;3.88;;
42590;SDS011;28218;53.342;-6.216;2024-01-30T03:10:22;14.65;;;2.35;;
42590;SDS011;28218;53.342;-6.216;2024-01-30T03:12:51;14.48;;;2.90;;
42590;SDS011;28218;53.342;-6.216;2024-01-30T03:15:20;6.47;;;2.38;;
42590;SDS011;28218;53.342;-6.216;2024-01-30T03:17:49;11.70;;;2.33;;
42590;SDS011;28218;53.342;-6.216;2024-01-30T03:20:17;7.72;;;2.45;;
42590;SDS011;28218;53.342;-6.216;2024-01-30T03:22:45;5.55;;;2.08;;
42590;SDS011;28218;53.342;-6.216;2024-01-30T03:25:14;6.25;;;2.03;;
42590;SDS011;28218;53.342;-6.216;2024-01-30T03:27:42;9.45;;;2.60;;
42590;SDS011;28218;53.342;-6.216;2024-01-30T03:30:10;10.85;;;2.47;;
42590;SDS011;28218;53.342;-6.216;2024-01-30T03:32:39;15.73;;;2.72;;
42590;SDS011;28218;53.342;-6.216;2024-01-30T03:35:07;14.35;;;2.60;;
42590;SDS011;28218;53.342;-6.216;2024-01-30T03:37:36;12.02;;;2.55;;
42590;SDS011;28218;53.342;-6.216;2024-01-30T03:40:05;12.50;;;2.80;;
42590;SDS011;28218;53.342;-6.216;2024-01-30T03:42:34;10.30;;;2.20;;
42590;SDS011;28218;53.342;-6.216;2024-01-30T03:45:02;7.53;;;2.00;;
42590;SDS011;28218;53.342;-6.216;2024-01-30T03:47:31;16.13;;;2.55;;
42590;SDS011;28218;53.342;-6.216;2024-01-30T03:50:01;11.57;;;2.10;;
42590;SDS011;28218;53.342;-6.216;2024-01-30T03:52:31;14.40;;;2.17;;
42590;SDS011;28218;53.342;-6.216;2024-01-30T03:54:59;5.40;;;2.00;;
42590;SDS011;28218;53.342;-6.216;2024-01-30T03:57:28;14.75;;;2.20;;
42590;SDS011;28218;53.342;-6.216;2024-01-30T03:59:56;11.00;;;2.50;;
42590;SDS011;28218;53.342;-6.216;2024-01-30T04:02:28;5.25;;;1.60;;
42590;SDS011;28218;53.342;-6.216;2024-01-30T04:04:57;11.13;;;1.80;;
42590;SDS011;28218;53.342;-6.216;2024-01-30T04:07:26;6.53;;;1.85;;
42590;SDS011;28218;53.342;-6.216;2024-01-30T04:09:55;7.97;;;2.05;;
42590;SDS011;28218;53.342;-6.216;2024-01-30T04:12:24;11.60;;;1.80;;
42590;SDS011;28218;53.342;-6.216;2024-01-30T04:14:52;6.00;;;2.13;;
42590;SDS011;28218;53.342;-6.216;2024-01-30T04:17:20;11.20;;;3.65;;
42590;SDS011;28218;53.342;-6.216;2024-01-30T04:19:48;9.02;;;2.08;;
42590;SDS011;28218;53.342;-6.216;2024-01-30T04:22:16;5.93;;;1.65;;
42590;SDS011;28218;53.342;-6.216;2024-01-30T04:24:46;6.43;;;1.85;;
42590;SDS011;28218;53.342;-6.216;2024-01-30T04:27:15;7.57;;;1.58;;
42590;SDS011;28218;53.342;-6.216;2024-01-30T04:29:43;5.75;;;1.58;;
42590;SDS011;28218;53.342;-6.216;2024-01-30T04:32:11;10.95;;;1.70;;
42590;SDS011;28218;53.342;-6.216;2024-01-30T04:34:39;5.47;;;1.70;;
42590;SDS011;28218;53.342;-6.216;2024-01-30T04:37:08;12.40;;;2.20;;
42590;SDS011;28218;53.342;-6.216;2024-01-30T04:39:36;9.13;;;1.85;;
42590;SDS011;28218;53.342;-6.216;2024-01-30T04:42:06;4.63;;;1.90;;
42590;SDS011;28218;53.342;-6.216;2024-01-30T04:44:35;8.83;;;1.77;;
42590;SDS011;28218;53.342;-6.216;2024-01-30T04:47:03;6.47;;;1.88;;
42590;SDS011;28218;53.342;-6.216;2024-01-30T04:49:35;7.53;;;1.83;;
42590;SDS011;28218;53.342;-6.216;2024-01-30T04:52:03;9.32;;;1.85;;
42590;SDS011;28218;53.342;-6.216;2024-01-30T04:54:32;12.63;;;3.00;;
42590;SDS011;28218;53.342;-6.216;2024-01-30T04:57:01;7.90;;;1.95;;
42590;SDS011;28218;53.342;-6.216;2024-01-30T04:59:31;5.00;;;1.67;;
42590;SDS011;28218;53.342;-6.216;2024-01-30T05:01:59;12.48;;;2.60;;
42590;SDS011;28218;53.342;-6.216;2024-01-30T05:04:27;6.93;;;1.70;;
42590;SDS011;28218;53.342;-6.216;2024-01-30T05:06:56;9.23;;;1.65;;
42590;SDS011;28218;53.342;-6.216;2024-01-30T05:09:24;8.65;;;1.77;;
42590;SDS011;28218;53.342;-6.216;2024-01-30T05:11:52;7.53;;;2.05;;
42590;SDS011;28218;53.342;-6.216;2024-01-30T05:14:20;13.43;;;1.80;;
42590;SDS011;28218;53.342;-6.216;2024-01-30T05:16:50;9.65;;;2.28;;
42590;SDS011;28218;53.342;-6.216;2024-01-30T05:19:18;10.63;;;1.88;;
42590;SDS011;28218;53.342;-6.216;2024-01-30T05:21:47;10.70;;;1.92;;
42590;SDS011;28218;53.342;-6.216;2024-01-30T05:24:15;9.65;;;2.28;;
42590;SDS011;28218;53.342;-6.216;2024-01-30T05:26:46;6.53;;;1.60;;
42590;SDS011;28218;53.342;-6.216;2024-01-30T05:29:15;7.80;;;3.13;;
42590;SDS011;28218;53.342;-6.216;2024-01-30T05:31:43;5.60;;;1.40;;
42590;SDS011;28218;53.342;-6.216;2024-01-30T05:34:13;7.28;;;1.75;;
42590;SDS011;28218;53.342;-6.216;2024-01-30T05:36:41;7.65;;;2.03;;
42590;SDS011;28218;53.342;-6.216;2024-01-30T05:39:09;14.85;;;2.33;;
42590;SDS011;28218;53.342;-6.216;2024-01-30T05:41:37;16.85;;;2.13;;
42590;SDS011;28218;53.342;-6.216;2024-01-30T05:44:06;8.75;;;2.20;;
42590;SDS011;28218;53.342;-6.216;2024-01-30T05:46:35;6.10;;;2.15;;
42590;SDS011;28218;53.342;-6.216;2024-01-30T05:49:03;13.20;;;2.30;;
42590;SDS011;28218;53.342;-6.216;2024-01-30T05:51:34;6.28;;;1.70;;
42590;SDS011;28218;53.342;-6.216;2024-01-30T05:54:02;14.70;;;2.28;;
42590;SDS011;28218;53.342;-6.216;2024-01-30T05:56:31;8.75;;;2.53;;
42590;SDS011;28218;53.342;-6.216;2024-01-30T05:58:59;13.93;;;2.70;;
42590;SDS011;28218;53.342;-6.216;2024-01-30T06:01:27;12.35;;;2.50;;
42590;SDS011;28218;53.342;-6.216;2024-01-30T06:03:56;10.23;;;2.38;;
42590;SDS011;28218;53.342;-6.216;2024-01-30T06:06:24;11.27;;;2.47;;
42590;SDS011;28218;53.342;-6.216;2024-01-30T06:08:54;8.88;;;2.05;;
42590;SDS011;28218;53.342;-6.216;2024-01-30T06:11:23;5.57;;;2.38;;
42590;SDS011;28218;53.342;-6.216;2024-01-30T06:13:51;10.65;;;2.28;;
42590;SDS011;28218;53.342;-6.216;2024-01-30T06:16:20;14.13;;;4.07;;
42590;SDS011;28218;53.342;-6.216;2024-01-30T06:18:49;8.88;;;2.25;;
42590;SDS011;28218;53.342;-6.216;2024-01-30T06:21:18;16.73;;;3.53;;
42590;SDS011;28218;53.342;-6.216;2024-01-30T06:23:46;12.52;;;3.50;;
42590;SDS011;28218;53.342;-6.216;2024-01-30T06:26:16;13.73;;;2.63;;
42590;SDS011;28218;53.342;-6.216;2024-01-30T06:28:44;14.68;;;3.17;;
42590;SDS011;28218;53.342;-6.216;2024-01-30T06:31:12;15.05;;;2.33;;
42590;SDS011;28218;53.342;-6.216;2024-01-30T06:33:40;9.68;;;2.58;;
42590;SDS011;28218;53.342;-6.216;2024-01-30T06:36:09;16.17;;;3.17;;
42590;SDS011;28218;53.342;-6.216;2024-01-30T06:38:37;18.25;;;3.53;;
42590;SDS011;28218;53.342;-6.216;2024-01-30T06:41:06;13.23;;;3.28;;
42590;SDS011;28218;53.342;-6.216;2024-01-30T06:43:35;9.70;;;3.05;;
42590;SDS011;28218;53.342;-6.216;2024-01-30T06:46:03;15.80;;;3.05;;
42590;SDS011;28218;53.342;-6.216;2024-01-30T06:48:32;11.98;;;3.60;;
42590;SDS011;28218;53.342;-6.216;2024-01-30T06:51:00;12.13;;;3.72;;
42590;SDS011;28218;53.342;-6.216;2024-01-30T06:53:28;8.48;;;2.50;;
42590;SDS011;28218;53.342;-6.216;2024-01-30T06:55:56;11.82;;;3.25;;
42590;SDS011;28218;53.342;-6.216;2024-01-30T06:58:25;13.38;;;2.47;;
42590;SDS011;28218;53.342;-6.216;2024-01-30T07:00:55;10.00;;;2.20;;
42590;SDS011;28218;53.342;-6.216;2024-01-30T07:03:23;11.25;;;2.85;;
42590;SDS011;28218;53.342;-6.216;2024-01-30T07:05:52;27.95;;;3.15;;
42590;SDS011;28218;53.342;-6.216;2024-01-30T07:08:20;14.75;;;3.40;;
42590;SDS011;28218;53.342;-6.216;2024-01-30T07:10:49;9.75;;;2.72;;
42590;SDS011;28218;53.342;-6.216;2024-01-30T07:13:17;17.73;;;3.05;;
42590;SDS011;28218;53.342;-6.216;2024-01-30T07:15:45;7.95;;;2.50;;
42590;SDS011;28218;53.342;-6.216;2024-01-30T07:18:15;9.55;;;2.55;;
42590;SDS011;28218;53.342;-6.216;2024-01-30T07:20:43;12.20;;;3.25;;
42590;SDS011;28218;53.342;-6.216;2024-01-30T07:23:13;9.15;;;4.07;;
42590;SDS011;28218;53.342;-6.216;2024-01-30T07:25:43;10.82;;;2.47;;
42590;SDS011;28218;53.342;-6.216;2024-01-30T07:28:15;9.85;;;2.97;;
42590;SDS011;28218;53.342;-6.216;2024-01-30T07:30:44;7.65;;;2.38;;
42590;SDS011;28218;53.342;-6.216;2024-01-30T07:33:15;11.95;;;2.88;;
42590;SDS011;28218;53.342;-6.216;2024-01-30T07:35:44;12.18;;;2.75;;
42590;SDS011;28218;53.342;-6.216;2024-01-30T07:38:13;17.20;;;3.33;;
42590;SDS011;28218;53.342;-6.216;2024-01-30T07:40:41;11.38;;;2.60;;
42590;SDS011;28218;53.342;-6.216;2024-01-30T07:43:10;15.15;;;3.28;;
42590;SDS011;28218;53.342;-6.216;2024-01-30T07:45:38;10.95;;;2.60;;
42590;SDS011;28218;53.342;-6.216;2024-01-30T07:48:06;10.27;;;2.78;;
42590;SDS011;28218;53.342;-6.216;2024-01-30T07:50:36;21.77;;;6.18;;
42590;SDS011;28218;53.342;-6.216;2024-01-30T07:53:04;15.90;;;3.35;;
42590;SDS011;28218;53.342;-6.216;2024-01-30T07:55:32;9.30;;;3.00;;
42590;SDS011;28218;53.342;-6.216;2024-01-30T07:58:01;14.48;;;3.00;;
42590;SDS011;28218;53.342;-6.216;2024-01-30T08:00:31;6.97;;;2.45;;
42590;SDS011;28218;53.342;-6.216;2024-01-30T08:02:59;15.40;;;2.70;;
42590;SDS011;28218;53.342;-6.216;2024-01-30T08:05:27;12.00;;;2.00;;
42590;SDS011;28218;53.342;-6.216;2024-01-30T08:07:57;12.63;;;2.90;;
42590;SDS011;28218;53.342;-6.216;2024-01-30T08:10:25;9.80;;;2.50;;
42590;SDS011;28218;53.342;-6.216;2024-01-30T08:12:53;12.50;;;2.38;;
42590;SDS011;28218;53.342;-6.216;2024-01-30T08:15:21;13.35;;;3.25;;
42590;SDS011;28218;53.342;-6.216;2024-01-30T08:17:50;13.13;;;2.90;;
42590;SDS011;28218;53.342;-6.216;2024-01-30T08:20:22;9.32;;;2.47;;
42590;SDS011;28218;53.342;-6.216;2024-01-30T08:22:50;12.52;;;2.67;;
42590;SDS011;28218;53.342;-6.216;2024-01-30T08:25:20;8.98;;;2.35;;
42590;SDS011;28218;53.342;-6.216;2024-01-30T08:27:48;13.38;;;3.25;;
42590;SDS011;28218;53.342;-6.216;2024-01-30T08:30:17;14.48;;;3.03;;
42590;SDS011;28218;53.342;-6.216;2024-01-30T08:32:45;17.70;;;3.03;;
42590;SDS011;28218;53.342;-6.216;2024-01-30T08:35:13;11.38;;;3.47;;
42590;SDS011;28218;53.342;-6.216;2024-01-30T08:37:43;9.25;;;3.42;;
42590;SDS011;28218;53.342;-6.216;2024-01-30T08:40:11;9.75;;;2.65;;
42590;SDS011;28218;53.342;-6.216;2024-01-30T08:42:40;12.65;;;2.75;;
42590;SDS011;28218;53.342;-6.216;2024-01-30T08:45:09;8.70;;;2.67;;
42590;SDS011;28218;53.342;-6.216;2024-01-30T08:47:37;9.15;;;3.05;;
42590;SDS011;28218;53.342;-6.216;2024-01-30T08:50:06;9.48;;;2.60;;
42590;SDS011;28218;53.342;-6.216;2024-01-30T08:52:38;8.75;;;2.47;;
42590;SDS011;28218;53.342;-6.216;2024-01-30T08:55:06;10.25;;;2.90;;
42590;SDS011;28218;53.342;-6.216;2024-01-30T08:57:36;8.77;;;2.85;;
42590;SDS011;28218;53.342;-6.216;2024-01-30T09:00:06;17.27;;;3.88;;
42590;SDS011;28218;53.342;-6.216;2024-01-30T09:02:36;11.55;;;3.22;;
42590;SDS011;28218;53.342;-6.216;2024-01-30T09:05:05;11.93;;;2.75;;
42590;SDS011;28218;53.342;-6.216;2024-01-30T09:07:33;12.98;;;3.47;;
42590;SDS011;28218;53.342;-6.216;2024-01-30T09:10:02;13.07;;;3.33;;
42590;SDS011;28218;53.342;-6.216;2024-01-30T09:12:31;10.75;;;2.55;;
42590;SDS011;28218;53.342;-6.216;2024-01-30T09:14:59;14.98;;;3.20;;
42590;SDS011;28218;53.342;-6.216;2024-01-30T09:17:29;12.98;;;3.33;;
42590;SDS011;28218;53.342;-6.216;2024-01-30T09:19:57;13.80;;;3.03;;
42590;SDS011;28218;53.342;-6.216;2024-01-30T09:22:25;19.08;;;3.50;;
42590;SDS011;28218;53.342;-6.216;2024-01-30T09:24:54;11.95;;;2.92;;
42590;SDS011;28218;53.342;-6.216;2024-01-30T09:27:22;9.25;;;3.03;;
42590;SDS011;28218;53.342;-6.216;2024-01-30T09:29:50;11.77;;;3.35;;
42590;SDS011;28218;53.342;-6.216;2024-01-30T09:32:18;13.50;;;3.50;;
42590;SDS011;28218;53.342;-6.216;2024-01-30T09:34:48;9.05;;;3.17;;
42590;SDS011;28218;53.342;-6.216;2024-01-30T09:37:16;12.10;;;3.53;;
42590;SDS011;28218;53.342;-6.216;2024-01-30T09:39:45;11.80;;;4.05;;
42590;SDS011;28218;53.342;-6.216;2024-01-30T09:42:16;14.25;;;4.13;;
42590;SDS011;28218;53.342;-6.216;2024-01-30T09:44:49;9.45;;;3.10;;
42590;SDS011;28218;53.342;-6.216;2024-01-30T09:47:18;14.82;;;3.58;;
42590;SDS011;28218;53.342;-6.216;2024-01-30T09:49:48;27.52;;;4.43;;
42590;SDS011;28218;53.342;-6.216;2024-01-30T09:52:20;12.63;;;2.45;;
42590;SDS011;28218;53.342;-6.216;2024-01-30T09:54:49;8.18;;;3.03;;
42590;SDS011;28218;53.342;-6.216;2024-01-30T09:57:19;11.60;;;3.20;;
42590;SDS011;28218;53.342;-6.216;2024-01-30T09:59:48;10.23;;;3.90;;
42590;SDS011;28218;53.342;-6.216;2024-01-30T10:02:18;7.75;;;3.35;;
42590;SDS011;28218;53.342;-6.216;2024-01-30T10:04:48;11.50;;;3.35;;
42590;SDS011;28218;53.342;-6.216;2024-01-30T10:07:18;7.03;;;2.80;;
42590;SDS011;28218;53.342;-6.216;2024-01-30T10:09:47;11.35;;;3.30;;
42590;SDS011;28218;53.342;-6.216;2024-01-30T10:12:15;8.50;;;2.95;;
42590;SDS011;28218;53.342;-6.216;2024-01-30T10:14:44;12.48;;;3.70;;
42590;SDS011;28218;53.342;-6.216;2024-01-30T10:17:12;10.18;;;2.60;;
42590;SDS011;28218;53.342;-6.216;2024-01-30T10:19:55;10.07;;;2.75;;
42590;SDS011;28218;53.342;-6.216;2024-01-30T10:22:25;21.40;;;3.47;;
42590;SDS011;28218;53.342;-6.216;2024-01-30T10:24:54;9.65;;;2.40;;
42590;SDS011;28218;53.342;-6.216;2024-01-30T10:27:24;11.95;;;3.90;;
42590;SDS011;28218;53.342;-6.216;2024-01-30T10:29:53;12.32;;;3.17;;
42590;SDS011;28218;53.342;-6.216;2024-01-30T10:32:22;13.38;;;3.42;;
42590;SDS011;28218;53.342;-6.216;2024-01-30T10:34:50;9.13;;;2.92;;
42590;SDS011;28218;53.342;-6.216;2024-01-30T10:37:21;16.90;;;3.58;;
42590;SDS011;28218;53.342;-6.216;2024-01-30T10:39:53;9.40;;;2.65;;
42590;SDS011;28218;53.342;-6.216;2024-01-30T10:42:25;8.13;;;2.65;;
42590;SDS011;28218;53.342;-6.216;2024-01-30T10:44:56;14.82;;;2.95;;
42590;SDS011;28218;53.342;-6.216;2024-01-30T10:47:30;13.00;;;3.30;;
42590;SDS011;28218;53.342;-6.216;2024-01-30T10:49:58;8.48;;;2.63;;
42590;SDS011;28218;53.342;-6.216;2024-01-30T10:52:29;7.55;;;3.13;;
42590;SDS011;28218;53.342;-6.216;2024-01-30T10:54:57;8.43;;;2.80;;
42590;SDS011;28218;53.342;-6.216;2024-01-30T10:57:27;9.18;;;2.35;;
42590;SDS011;28218;53.342;-6.216;2024-01-30T10:59:56;12.15;;;2.53;;
42590;SDS011;28218;53.342;-6.216;2024-01-30T11:02:26;7.45;;;2.17;;
42590;SDS011;28218;53.342;-6.216;2024-01-30T11:04:56;11.07;;;2.88;;
42590;SDS011;28218;53.342;-6.216;2024-01-30T11:07:27;9.88;;;3.15;;
42590;SDS011;28218;53.342;-6.216;2024-01-30T11:09:59;8.45;;;3.45;;
42590;SDS011;28218;53.342;-6.216;2024-01-30T11:12:30;10.75;;;2.30;;
42590;SDS011;28218;53.342;-6.216;2024-01-30T11:15:03;20.00;;;2.92;;
42590;SDS011;28218;53.342;-6.216;2024-01-30T11:17:44;11.95;;;2.20;;
42590;SDS011;28218;53.342;-6.216;2024-01-30T11:20:19;14.38;;;2.83;;
42590;SDS011;28218;53.342;-6.216;2024-01-30T11:22:50;10.27;;;1.83;;
42590;SDS011;28218;53.342;-6.216;2024-01-30T11:25:20;7.30;;;2.03;;
42590;SDS011;28218;53.342;-6.216;2024-01-30T11:27:49;13.88;;;2.25;;
42590;SDS011;28218;53.342;-6.216;2024-01-30T11:30:22;11.25;;;2.90;;
42590;SDS011;28218;53.342;-6.216;2024-01-30T11:33:00;9.85;;;1.83;;
42590;SDS011;28218;53.342;-6.216;2024-01-30T11:35:32;4.70;;;1.73;;
42590;SDS011;28218;53.342;-6.216;2024-01-30T11:38:03;6.07;;;1.73;;
42590;SDS011;28218;53.342;-6.216;2024-01-30T11:40:32;5.43;;;1.67;;
42590;SDS011;28218;53.342;-6.216;2024-01-30T11:43:03;14.50;;;1.87;;
42590;SDS011;28218;53.342;-6.216;2024-01-30T11:45:33;10.95;;;2.00;;
42590;SDS011;28218;53.342;-6.216;2024-01-30T11:48:03;9.05;;;3.40;;
42590;SDS011;28218;53.342;-6.216;2024-01-30T11:50:32;10.30;;;1.50;;
42590;SDS011;28218;53.342;-6.216;2024-01-30T11:53:03;5.68;;;2.53;;
42590;SDS011;28218;53.342;-6.216;2024-01-30T11:55:32;6.88;;;1.70;;
42590;SDS011;28218;53.342;-6.216;2024-01-30T11:58:03;4.95;;;1.60;;
42590;SDS011;28218;53.342;-6.216;2024-01-30T12:00:33;4.57;;;1.50;;
42590;SDS011;28218;53.342;-6.216;2024-01-30T12:03:02;7.22;;;1.70;;
42590;SDS011;28218;53.342;-6.216;2024-01-30T12:05:33;8.75;;;1.90;;
42590;SDS011;28218;53.342;-6.216;2024-01-30T12:08:04;13.55;;;2.20;;
42590;SDS011;28218;53.342;-6.216;2024-01-30T12:13:02;7.97;;;2.08;;
42590;SDS011;28218;53.342;-6.216;2024-01-30T12:15:30;8.52;;;1.67;;
42590;SDS011;28218;53.342;-6.216;2024-01-30T12:18:05;4.35;;;2.30;;
42590;SDS011;28218;53.342;-6.216;2024-01-30T12:20:34;11.98;;;2.15;;
42590;SDS011;28218;53.342;-6.216;2024-01-30T12:23:04;7.72;;;2.00;;
42590;SDS011;28218;53.342;-6.216;2024-01-30T12:25:33;6.57;;;1.63;;
42590;SDS011;28218;53.342;-6.216;2024-01-30T12:28:01;6.40;;;2.25;;
42590;SDS011;28218;53.342;-6.216;2024-01-30T12:30:30;8.75;;;1.92;;
42590;SDS011;28218;53.342;-6.216;2024-01-30T12:32:58;5.15;;;1.88;;
42590;SDS011;28218;53.342;-6.216;2024-01-30T12:35:28;3.33;;;1.33;;
42590;SDS011;28218;53.342;-6.216;2024-01-30T12:37:59;7.32;;;1.75;;
42590;SDS011;28218;53.342;-6.216;2024-01-30T12:40:29;6.75;;;2.25;;
42590;SDS011;28218;53.342;-6.216;2024-01-30T12:43:02;7.25;;;2.15;;
42590;SDS011;28218;53.342;-6.216;2024-01-30T12:45:31;10.35;;;2.47;;
42590;SDS011;28218;53.342;-6.216;2024-01-30T12:47:59;12.40;;;2.90;;
42590;SDS011;28218;53.342;-6.216;2024-01-30T12:50:28;15.25;;;2.55;;
42590;SDS011;28218;53.342;-6.216;2024-01-30T12:52:56;6.97;;;2.05;;
42590;SDS011;28218;53.342;-6.216;2024-01-30T12:55:25;5.60;;;1.42;;
42590;SDS011;28218;53.342;-6.216;2024-01-30T12:57:57;9.90;;;2.00;;
42590;SDS011;28218;53.342;-6.216;2024-01-30T13:00:25;8.55;;;2.10;;
42590;SDS011;28218;53.342;-6.216;2024-01-30T13:02:53;3.50;;;1.70;;
42590;SDS011;28218;53.342;-6.216;2024-01-30T13:05:22;9.30;;;2.13;;
42590;SDS011;28218;53.342;-6.216;2024-01-30T13:07:51;7.22;;;2.13;;
42590;SDS011;28218;53.342;-6.216;2024-01-30T13:10:19;8.05;;;2.10;;
42590;SDS011;28218;53.342;-6.216;2024-01-30T13:12:48;4.43;;;1.58;;
42590;SDS011;28218;53.342;-6.216;2024-01-30T13:15:17;5.45;;;1.20;;
42590;SDS011;28218;53.342;-6.216;2024-01-30T13:17:45;4.72;;;1.75;;
42590;SDS011;28218;53.342;-6.216;2024-01-30T13:20:15;4.30;;;1.92;;
42590;SDS011;28218;53.342;-6.216;2024-01-30T13:22:47;5.80;;;1.70;;
42590;SDS011;28218;53.342;-6.216;2024-01-30T13:25:16;8.05;;;1.65;;
42590;SDS011;28218;53.342;-6.216;2024-01-30T13:27:44;5.47;;;1.80;;
42590;SDS011;28218;53.342;-6.216;2024-01-30T13:30:12;9.30;;;1.85;;
42590;SDS011;28218;53.342;-6.216;2024-01-30T13:32:42;4.03;;;1.15;;
42590;SDS011;28218;53.342;-6.216;2024-01-30T13:35:12;9.68;;;1.63;;
42590;SDS011;28218;53.342;-6.216;2024-01-30T13:37:41;8.95;;;2.17;;
42590;SDS011;28218;53.342;-6.216;2024-01-30T13:40:09;7.88;;;1.20;;
42590;SDS011;28218;53.342;-6.216;2024-01-30T13:42:40;4.53;;;1.13;;
42590;SDS011;28218;53.342;-6.216;2024-01-30T13:45:08;2.70;;;1.10;;
42590;SDS011;28218;53.342;-6.216;2024-01-30T13:47:37;4.45;;;1.40;;
42590;SDS011;28218;53.342;-6.216;2024-01-30T13:50:08;6.55;;;1.27;;
42590;SDS011;28218;53.342;-6.216;2024-01-30T13:52:41;8.35;;;1.10;;
42590;SDS011;28218;53.342;-6.216;2024-01-30T13:55:11;4.05;;;1.40;;
42590;SDS011;28218;53.342;-6.216;2024-01-30T13:57:40;5.05;;;1.23;;
42590;SDS011;28218;53.342;-6.216;2024-01-30T14:00:09;2.67;;;0.93;;
42590;SDS011;28218;53.342;-6.216;2024-01-30T14:02:43;4.60;;;1.15;;
42590;SDS011;28218;53.342;-6.216;2024-01-30T14:05:12;3.08;;;1.10;;
42590;SDS011;28218;53.342;-6.216;2024-01-30T14:07:41;4.10;;;0.90;;
42590;SDS011;28218;53.342;-6.216;2024-01-30T14:10:11;2.50;;;1.02;;
42590;SDS011;28218;53.342;-6.216;2024-01-30T14:12:41;2.25;;;0.93;;
42590;SDS011;28218;53.342;-6.216;2024-01-30T14:15:11;1.10;;;0.90;;
42590;SDS011;28218;53.342;-6.216;2024-01-30T14:17:53;4.43;;;1.00;;
42590;SDS011;28218;53.342;-6.216;2024-01-30T14:20:24;3.13;;;0.98;;
42590;SDS011;28218;53.342;-6.216;2024-01-30T14:22:52;2.75;;;0.98;;
42590;SDS011;28218;53.342;-6.216;2024-01-30T14:25:23;5.15;;;0.95;;
42590;SDS011;28218;53.342;-6.216;2024-01-30T14:27:51;5.43;;;1.35;;
42590;SDS011;28218;53.342;-6.216;2024-01-30T14:30:20;15.65;;;1.30;;
42590;SDS011;28218;53.342;-6.216;2024-01-30T14:32:48;2.67;;;1.17;;
42590;SDS011;28218;53.342;-6.216;2024-01-30T14:35:17;1.38;;;0.75;;
42590;SDS011;28218;53.342;-6.216;2024-01-30T14:37:48;2.03;;;0.70;;
42590;SDS011;28218;53.342;-6.216;2024-01-30T14:40:17;3.13;;;0.80;;
42590;SDS011;28218;53.342;-6.216;2024-01-30T14:42:46;4.57;;;1.05;;